BWG weather

Bowling Green Warren County Regional Airport
Bowling Green, Kentucky, United States

Public forecast

Using degrees Fahrenheit for public forecast. Weather courtesy of forecast.io.

Current aviation weather report (METAR) for Bowling Green Warren County Regional Airport

Retrieved 2019/11/21 12:53 UTC (45 minutes ago):

KBWG 211253Z AUTO 00000KT 10SM CLR 09/03 A3018 RMK AO2 SLP221 T00940028

Aviation forecast (TAF) for Bowling Green Warren County Regional Airport

Retrieved 2019/11/21 12:22 UTC (1 hour ago):

TAF KBWG 211120Z 2112/2212 VRB03KT P6SM BKN250 FM211500 20012G22KT P6SM VCSH OVC150 PROB30 2121/2201 6SM -RA OVC040 FM220300 21008KT 5SM -RA OVC025 FM220800 28005KT 3SM RA OVC007